Time;durP1;ratioP1;P1;durP2;ratioP2;P2;SDS_P1;SDS_P2;PMS_P1;PMS_P2;Temp;Humidity;BMP_temperature;BMP_pressure;BME280_temperature;BME280_humidity;BME280_pressure;Samples;Min_cycle;Max_cycle;Signal;HPM_P1;HPM_P2
2021/12/18 00:00:09;;;;;;;8.05;3.15;;;;;;;4.59;100.00;102918.34;5061691;28;20050;-79
2021/12/18 00:02:36;;;;;;;6.68;4.13;;;;;;;4.59;100.00;102918.34;5068682;28;20170;-77
2021/12/18 00:05:11;;;;;;;6.40;3.45;;;;;;;4.61;100.00;102919.25;5063439;28;20094;-77
2021/12/18 00:07:39;;;;;;;6.05;3.65;;;;;;;4.59;100.00;102915.72;5059925;28;20079;-78
2021/12/18 00:10:07;;;;;;;7.95;3.67;;;;;;;4.66;100.00;102916.63;5063511;28;20036;-76
2021/12/18 00:12:34;;;;;;;6.10;3.42;;;;;;;4.69;100.00;102916.66;5053689;28;20052;-78
2021/12/18 00:15:07;;;;;;;7.13;3.72;;;;;;;4.62;100.00;102920.09;5086121;28;20498;-76
2021/12/18 00:17:35;;;;;;;7.30;3.78;;;;;;;4.62;100.00;102923.56;5086783;28;20135;-77
2021/12/18 08:44:38;;;;;;;7.50;4.80;;;;;;;4.46;100.00;102734.03;5092977;28;20056;-77
2021/12/18 08:47:07;;;;;;;4.43;3.00;;;;;;;4.48;100.00;102735.75;5062690;28;20067;-79
2021/12/18 08:49:37;;;;;;;3.47;2.70;;;;;;;4.53;100.00;102727.94;5047143;28;20206;-77
2021/12/18 08:52:05;;;;;;;2.75;1.75;;;;;;;4.62;100.00;102729.66;5060639;28;20360;-77
2021/12/18 08:54:32;;;;;;;3.55;1.85;;;;;;;4.67;100.00;102735.75;5069337;28;20146;-78
2021/12/18 08:57:09;;;;;;;2.50;1.88;;;;;;;4.63;100.00;102736.63;5066076;28;20139;-76
2021/12/18 08:59:37;;;;;;;2.35;1.60;;;;;;;4.59;100.00;102740.94;5040688;28;20574;-78
2021/12/18 09:02:06;;;;;;;4.88;2.10;;;;;;;4.61;100.00;102746.19;5069052;28;20537;-78
2021/12/18 09:04:34;;;;;;;3.50;2.10;;;;;;;4.60;100.00;102739.25;5050037;28;20083;-78
2021/12/18 09:07:02;;;;;;;3.60;2.60;;;;;;;4.61;100.00;102740.97;5046589;28;20116;-78
2021/12/18 09:09:34;;;;;;;4.25;2.65;;;;;;;4.51;100.00;102733.16;5059816;28;20253;-77
2021/12/18 09:12:04;;;;;;;4.50;2.90;;;;;;;4.55;100.00;102736.63;5042861;28;20051;-78
2021/12/18 09:14:31;;;;;;;4.82;2.65;;;;;;;4.67;100.00;102730.53;5050488;28;20152;-77
2021/12/18 09:16:59;;;;;;;6.38;3.10;;;;;;;4.71;100.00;102733.13;5063647;28;20143;-78
2021/12/18 09:19:26;;;;;;;5.60;3.60;;;;;;;4.66;100.00;102739.22;5056294;28;20143;-78
2021/12/18 09:21:55;;;;;;;4.75;3.38;;;;;;;4.74;100.00;102740.97;5048912;28;20040;-77
2021/12/18 09:24:24;;;;;;;7.07;3.00;;;;;;;4.70;100.00;102723.56;5077065;28;20051;-77
2021/12/18 09:26:52;;;;;;;13.88;4.00;;;;;;;4.66;100.00;102719.22;5048882;28;20139;-77
2021/12/18 09:29:19;;;;;;;6.07;3.97;;;;;;;4.84;100.00;102731.38;5062950;28;20049;-79
2021/12/18 09:31:46;;;;;;;8.55;3.70;;;;;;;4.83;100.00;102722.69;5062950;28;20043;-78
2021/12/18 09:34:14;;;;;;;8.10;3.50;;;;;;;4.77;100.00;102725.31;5062567;28;20048;-81
2021/12/18 09:36:41;;;;;;;6.20;3.60;;;;;;;4.84;100.00;102728.78;5046311;28;20514;-80
2021/12/18 09:39:08;;;;;;;6.95;3.33;;;;;;;4.83;100.00;102720.06;5057273;28;20139;-81
2021/12/18 09:41:36;;;;;;;9.50;4.63;;;;;;;4.90;100.00;102715.69;5048642;28;20075;-79
2021/12/18 09:44:03;;;;;;;10.95;4.55;;;;;;;5.03;100.00;102716.56;5064267;28;20135;-80
2021/12/18 09:46:31;;;;;;;7.22;3.97;;;;;;;5.07;100.00;102708.72;5082956;28;20036;-78
2021/12/18 09:49:00;;;;;;;5.88;3.72;;;;;;;5.14;100.00;102708.72;5056621;28;20143;-80
2021/12/18 09:51:27;;;;;;;6.22;4.28;;;;;;;5.19;100.00;102709.56;5063275;28;20158;-76
2021/12/18 09:53:56;;;;;;;5.05;3.42;;;;;;;5.14;100.00;102701.75;5050150;28;20098;-76
2021/12/18 09:56:25;;;;;;;5.47;3.83;;;;;;;5.13;100.00;102699.97;5062065;28;20105;-77
2021/12/18 09:58:53;;;;;;;6.45;3.42;;;;;;;5.11;100.00;102695.66;5037677;28;20054;-78
2021/12/18 10:01:20;;;;;;;4.80;3.90;;;;;;;5.18;100.00;102690.41;5064857;28;20079;-76
2021/12/18 10:03:51;;;;;;;5.20;3.88;;;;;;;5.15;100.00;102687.81;5071479;28;20140;-80
2021/12/18 10:06:43;;;;;;;5.30;3.67;;;;;;;5.15;100.00;102679.13;5067592;28;20266;-77
2021/12/18 10:09:10;;;;;;;4.80;3.20;;;;;;;5.14;100.00;102693.03;5047292;28;20040;-77
2021/12/18 10:11:47;;;;;;;5.30;3.20;;;;;;;5.15;100.00;102687.81;5080123;28;21401;-77
2021/12/18 10:14:15;;;;;;;3.67;3.20;;;;;;;5.24;100.00;102681.69;5060920;28;20135;-79
2021/12/18 10:16:49;;;;;;;5.57;3.38;;;;;;;5.23;100.00;102677.34;5029351;28;20143;-77
2021/12/18 10:19:33;;;;;;;5.22;3.50;;;;;;;5.20;100.00;102674.75;5065221;28;20187;-77
2021/12/18 10:22:07;;;;;;;5.63;4.38;;;;;;;5.30;100.00;102677.28;5059999;28;20470;-77
2021/12/18 10:24:38;;;;;;;6.90;3.53;;;;;;;5.36;100.00;102676.41;5058528;28;20052;-76
2021/12/18 10:27:19;;;;;;;4.82;2.97;;;;;;;5.38;100.00;102665.97;5059714;28;20089;-75
2021/12/18 10:29:47;;;;;;;4.65;3.55;;;;;;;5.44;100.00;102665.91;5056492;28;20044;-74
2021/12/18 10:32:23;;;;;;;4.47;3.70;;;;;;;5.47;100.00;102664.16;5049266;28;20485;-75
2021/12/18 10:34:55;;;;;;;6.15;3.50;;;;;;;5.41;100.00;102656.38;5062359;28;20055;-75
2021/12/18 10:37:27;;;;;;;5.07;2.90;;;;;;;5.40;100.00;102661.56;5078942;28;20114;-75
2021/12/18 10:39:54;;;;;;;4.53;2.65;;;;;;;5.45;100.00;102646.75;5061306;28;20044;-76
2021/12/18 10:42:23;;;;;;;3.78;2.63;;;;;;;5.42;100.00;102645.03;5074756;28;20139;-77
2021/12/18 10:45:01;;;;;;;3.17;2.45;;;;;;;5.47;100.00;102638.03;5062685;28;20072;-77
2021/12/18 10:48:04;;;;;;;5.32;3.30;;;;;;;5.43;100.00;102635.44;5049772;28;20071;-79
2021/12/18 10:50:33;;;;;;;4.22;3.10;;;;;;;5.41;100.00;102635.47;5020345;28;20161;-76
2021/12/18 10:53:03;;;;;;;6.68;3.15;;;;;;;5.42;100.00;102631.97;5074570;28;20055;-76
2021/12/18 10:55:38;;;;;;;5.75;3.97;;;;;;;5.42;100.00;102636.34;5075558;28;20056;-74
2021/12/18 10:58:08;;;;;;;6.38;4.05;;;;;;;5.37;100.00;102627.66;5069508;28;20094;-76
2021/12/18 11:00:53;;;;;;;7.75;3.72;;;;;;;5.33;100.00;102625.06;5055707;28;20068;-77
2021/12/18 11:03:27;;;;;;;6.95;3.88;;;;;;;5.40;100.00;102618.03;5036232;28;20577;-75
2021/12/18 11:06:28;;;;;;;5.57;3.38;;;;;;;5.39;100.00;102594.56;5045883;28;20089;-76
2021/12/18 11:09:01;;;;;;;7.38;3.78;;;;;;;5.44;100.00;102598.88;5078323;28;20042;-76
2021/12/18 11:14:04;;;;;;;6.27;3.50;;;;;;;5.46;100.00;102596.25;5076814;28;20562;-77
2021/12/18 11:16:38;;;;;;;6.78;3.65;;;;;;;5.50;100.00;102580.56;5053221;28;20118;-76
2021/12/18 11:19:12;;;;;;;6.25;3.65;;;;;;;5.55;100.00;102573.56;5075233;28;20140;-79
2021/12/18 11:21:43;;;;;;;5.65;3.33;;;;;;;5.60;100.00;102570.91;5046473;28;20093;-77
2021/12/18 11:24:12;;;;;;;5.60;2.72;;;;;;;5.66;100.00;102572.59;5054298;28;20147;-78
2021/12/18 11:26:50;;;;;;;4.22;2.85;;;;;;;5.61;100.00;102583.09;5045161;28;20101;-74
2021/12/18 11:29:23;;;;;;;5.45;2.95;;;;;;;5.55;100.00;102584.00;5057206;28;20052;-74
2021/12/18 11:31:50;;;;;;;8.23;3.38;;;;;;;5.55;100.00;102585.75;5063513;28;20052;-77
2021/12/18 11:34:17;;;;;;;6.90;3.25;;;;;;;5.59;100.00;102577.03;5070199;28;20060;-76
2021/12/18 11:36:47;;;;;;;5.88;3.28;;;;;;;5.56;100.00;102585.72;5054150;28;20135;-76
2021/12/18 11:39:16;;;;;;;4.22;2.40;;;;;;;5.62;100.00;102576.13;5050781;28;20457;-76
2021/12/18 11:41:48;;;;;;;4.00;2.95;;;;;;;5.55;100.00;102577.91;5041605;28;20139;-75
2021/12/18 11:44:40;;;;;;;3.97;2.75;;;;;;;5.56;100.00;102567.44;5045310;28;20037;-76
2021/12/18 11:47:32;;;;;;;3.83;2.28;;;;;;;5.58;100.00;102557.88;5043985;28;20041;-78
2021/12/18 11:50:23;;;;;;;5.07;2.80;;;;;;;5.63;100.00;102563.06;5075694;28;20048;-76
2021/12/18 11:52:54;;;;;;;4.85;2.80;;;;;;;5.59;100.00;102562.22;5069033;28;20044;-76
2021/12/18 11:55:27;;;;;;;3.65;2.20;;;;;;;5.74;100.00;102561.22;5069678;28;20139;-77
2021/12/18 11:58:00;;;;;;;3.60;2.28;;;;;;;5.67;100.00;102554.28;5061893;28;20036;-77
2021/12/18 12:00:37;;;;;;;4.07;1.92;;;;;;;5.68;100.00;102553.44;5075695;28;20066;-76
2021/12/18 12:03:09;;;;;;;4.85;2.63;;;;;;;5.75;100.00;102552.50;5075060;28;20140;-78
2021/12/18 12:05:42;;;;;;;3.45;1.85;;;;;;;5.66;100.00;102539.50;5054412;28;20135;-79
2021/12/18 12:08:35;;;;;;;2.47;1.70;;;;;;;5.66;100.00;102547.34;5051217;28;20039;-76
2021/12/18 12:11:17;;;;;;;2.75;1.60;;;;;;;5.67;100.00;102543.84;5041280;28;20608;-75
2021/12/18 12:13:58;;;;;;;2.90;1.90;;;;;;;5.79;100.00;102542.88;5048927;28;20151;-76
2021/12/18 12:16:47;;;;;;;5.50;1.90;;;;;;;5.79;100.00;102535.91;5046972;28;20044;-77
2021/12/18 12:19:18;;;;;;;2.47;1.40;;;;;;;5.84;100.00;102531.50;5038551;28;20047;-76
2021/12/18 12:21:50;;;;;;;4.45;1.42;;;;;;;5.91;100.00;102531.47;5073701;28;20085;-77
2021/12/18 12:24:20;;;;;;;2.22;1.33;;;;;;;5.86;100.00;102531.50;5074840;28;20056;-75
2021/12/18 12:26:48;;;;;;;2.10;1.42;;;;;;;5.87;100.00;102520.16;5028946;28;20410;-77
2021/12/18 12:29:17;;;;;;;2.35;1.60;;;;;;;5.85;100.00;102511.47;5046812;28;20042;-79
2021/12/18 12:31:58;;;;;;;2.30;1.60;;;;;;;5.86;100.00;102501.91;5044104;28;20063;-75
2021/12/18 12:34:33;;;;;;;2.47;1.55;;;;;;;5.85;100.00;102501.00;5059537;28;20159;-76
2021/12/18 12:37:38;;;;;;;3.60;1.42;;;;;;;5.89;100.00;102488.78;5043808;28;20159;-76
2021/12/18 12:40:32;;;;;;;2.13;1.60;;;;;;;5.94;100.00;102487.88;5072393;28;20070;-77
2021/12/18 12:43:21;;;;;;;3.55;1.33;;;;;;;5.97;100.00;102472.16;5065732;28;20147;-78
2021/12/18 12:45:56;;;;;;;3.67;1.33;;;;;;;5.94;100.00;102469.56;5044521;28;20101;-77
2021/12/18 12:48:26;;;;;;;2.77;1.60;;;;;;;5.96;100.00;102466.97;5059307;28;20054;-79
2021/12/18 12:50:59;;;;;;;1.85;1.27;;;;;;;5.94;100.00;102459.13;5079854;28;20437;-77
2021/12/18 12:53:53;;;;;;;1.35;0.98;;;;;;;5.97;100.00;102460.84;5071507;28;20063;-78
2021/12/18 12:56:24;;;;;;;3.40;1.40;;;;;;;5.97;100.00;102453.88;5058649;28;20176;-78
2021/12/18 12:59:22;;;;;;;1.90;1.20;;;;;;;6.00;100.00;102450.38;5061701;28;20050;-78
2021/12/18 13:01:53;;;;;;;3.13;1.38;;;;;;;6.15;100.00;102454.56;5087317;28;20093;-76
2021/12/18 13:04:23;;;;;;;2.05;1.30;;;;;;;6.12;100.00;102441.50;5060977;28;20394;-76
2021/12/18 13:06:51;;;;;;;2.90;1.40;;;;;;;6.14;100.00;102438.00;5049258;28;20390;-76
2021/12/18 13:09:18;;;;;;;3.90;1.52;;;;;;;6.21;100.00;102436.16;5060387;28;20681;-78
2021/12/18 13:11:59;;;;;;;3.70;1.52;;;;;;;6.23;100.00;102448.38;5031364;28;20080;-76
2021/12/18 13:14:35;;;;;;;2.03;1.23;;;;;;;6.20;100.00;102437.94;5042972;28;20049;-76
2021/12/18 13:17:24;;;;;;;1.60;1.00;;;;;;;6.19;100.00;102440.56;5049736;28;20036;-76
2021/12/18 13:19:52;;;;;;;2.58;1.42;;;;;;;6.21;100.00;102438.78;5059756;28;20044;-80
2021/12/18 13:22:26;;;;;;;3.38;1.60;;;;;;;6.20;100.00;102435.31;5064317;28;20135;-77
2021/12/18 13:25:07;;;;;;;2.05;1.65;;;;;;;6.23;100.00;102437.91;5078271;28;20052;-77
2021/12/18 13:27:36;;;;;;;3.63;2.00;;;;;;;6.27;100.00;102434.38;5056186;28;20060;-76
2021/12/18 13:30:13;;;;;;;2.72;1.60;;;;;;;6.33;100.00;102436.03;5044200;28;20052;-76
2021/12/18 13:32:54;;;;;;;3.58;1.70;;;;;;;6.27;100.00;102429.13;5075897;28;20053;-76
2021/12/18 13:35:24;;;;;;;4.10;1.42;;;;;;;6.22;100.00;102423.09;5045130;28;20564;-76
2021/12/18 13:38:06;;;;;;;2.65;1.40;;;;;;;6.25;100.00;102420.44;5084862;28;20048;-76
2021/12/18 13:40:37;;;;;;;3.10;1.85;;;;;;;6.22;100.00;102414.41;5073641;28;20055;-77
2021/12/18 13:43:11;;;;;;;2.78;1.40;;;;;;;6.15;100.00;102410.97;5082298;28;20137;-77
2021/12/18 13:45:59;;;;;;;2.33;1.50;;;;;;;6.02;100.00;102412.84;5062436;28;20404;-76
2021/12/18 13:48:38;;;;;;;2.38;1.67;;;;;;;6.06;100.00;102405.84;5063083;28;20052;-76
2021/12/18 13:51:13;;;;;;;2.78;1.33;;;;;;;6.07;100.00;102399.72;5048257;28;20052;-76
2021/12/18 13:53:50;;;;;;;4.30;1.77;;;;;;;6.15;100.00;102404.88;5030765;28;20098;-78
2021/12/18 13:56:25;;;;;;;3.72;1.90;;;;;;;6.04;100.00;102407.63;5082559;28;20387;-77
2021/12/18 13:58:53;;;;;;;1.52;1.20;;;;;;;6.09;100.00;102405.81;5057184;28;20063;-77
2021/12/18 14:01:22;;;;;;;1.73;1.00;;;;;;;6.01;100.00;102400.66;5071346;28;20052;-77
2021/12/18 14:03:49;;;;;;;2.60;1.30;;;;;;;6.03;100.00;102401.53;5053880;28;20063;-80
2021/12/18 14:06:21;;;;;;;3.15;1.52;;;;;;;6.07;100.00;102402.34;5075854;28;20545;-78
2021/12/18 14:08:58;;;;;;;3.25;1.58;;;;;;;6.04;100.00;102399.78;5063020;28;20285;-80
2021/12/18 14:11:29;;;;;;;2.03;1.48;;;;;;;6.02;100.00;102397.16;5059625;28;20425;-77
2021/12/18 14:14:03;;;;;;;2.03;1.48;;;;;;;5.99;100.00;102386.78;5060489;28;20048;-81
2021/12/18 14:16:31;;;;;;;3.85;1.58;;;;;;;6.12;100.00;102381.38;5046417;28;20127;-77
2021/12/18 14:19:08;;;;;;;3.40;1.67;;;;;;;6.11;100.00;102372.66;5077220;28;20031;-77
2021/12/18 14:21:46;;;;;;;1.92;1.23;;;;;;;6.04;100.00;102384.97;5037959;28;20118;-78
2021/12/18 14:24:15;;;;;;;2.58;1.67;;;;;;;6.02;100.00;102385.84;5064402;28;20048;-81
2021/12/18 14:27:10;;;;;;;2.70;1.80;;;;;;;6.01;100.00;102379.75;5049439;28;20032;-83
2021/12/18 14:29:38;;;;;;;2.65;1.67;;;;;;;5.95;100.00;102384.22;5051575;28;20032;-83
2021/12/18 14:32:07;;;;;;;3.33;1.77;;;;;;;5.94;100.00;102378.09;5068219;28;20430;-80
2021/12/18 14:34:36;;;;;;;3.55;1.77;;;;;;;5.95;100.00;102373.75;5057940;28;20048;-80
2021/12/18 14:37:04;;;;;;;3.78;1.73;;;;;;;5.96;100.00;102365.88;5062659;28;20143;-85
2021/12/18 14:39:38;;;;;;;2.83;2.00;;;;;;;5.96;100.00;102376.34;5060699;28;20143;-80
2021/12/18 14:42:12;;;;;;;3.58;2.47;;;;;;;5.95;100.00;102368.53;5059891;28;20043;-82
2021/12/18 14:44:49;;;;;;;4.55;2.50;;;;;;;5.95;100.00;102365.91;5061181;28;20330;-81
2021/12/18 14:47:20;;;;;;;2.10;1.90;;;;;;;5.99;100.00;102362.34;5064764;28;20051;-81
2021/12/18 14:50:11;;;;;;;3.63;2.58;;;;;;;5.95;100.00;102353.69;5061288;28;20040;-79
2021/12/18 14:53:07;;;;;;;3.90;3.13;;;;;;;5.92;100.00;102363.31;5063312;28;20071;-80
2021/12/18 14:55:42;;;;;;;6.57;3.00;;;;;;;5.87;100.00;102376.41;5075633;28;20060;-80
2021/12/18 14:58:33;;;;;;;4.70;3.03;;;;;;;5.81;100.00;102366.91;5059650;28;20049;-83
2021/12/18 15:01:14;;;;;;;6.15;3.70;;;;;;;5.77;100.00;102367.81;5059901;28;20058;-79
2021/12/18 15:03:52;;;;;;;5.32;3.67;;;;;;;5.72;100.00;102360.88;5049193;28;20056;-80
2021/12/18 15:06:25;;;;;;;5.53;2.92;;;;;;;5.73;100.00;102353.03;5049757;28;20318;-78
2021/12/18 15:08:58;;;;;;;5.22;3.78;;;;;;;5.72;100.00;102353.03;5045410;28;20354;-79
2021/12/18 15:11:44;;;;;;;5.00;3.58;;;;;;;5.67;100.00;102354.84;5061234;28;20062;-79
2021/12/18 15:14:18;;;;;;;5.25;3.47;;;;;;;5.66;100.00;102351.38;5060099;28;20044;-83
2021/12/18 15:16:54;;;;;;;5.82;3.85;;;;;;;5.62;100.00;102356.66;5082832;28;20135;-81
2021/12/18 15:19:25;;;;;;;5.13;3.60;;;;;;;5.64;100.00;102350.53;5077777;28;20154;-80
2021/12/18 15:21:54;;;;;;;7.72;4.57;;;;;;;5.61;100.00;102342.72;5049158;28;20135;-81
2021/12/18 15:24:22;;;;;;;4.93;3.88;;;;;;;5.63;100.00;102353.16;5024943;28;20082;-83
2021/12/18 15:26:51;;;;;;;5.63;4.18;;;;;;;5.65;100.00;102343.56;5047731;28;20250;-80
2021/12/18 15:29:21;;;;;;;5.95;3.97;;;;;;;5.72;100.00;102337.38;5044872;28;20058;-79
2021/12/18 15:31:50;;;;;;;7.72;4.00;;;;;;;5.72;100.00;102346.09;5065432;28;20439;-80
2021/12/18 15:34:18;;;;;;;7.22;4.15;;;;;;;5.66;100.00;102330.47;5080196;28;20043;-82
2021/12/18 15:36:46;;;;;;;7.15;4.28;;;;;;;5.77;100.00;102339.06;5048495;28;20159;-79
2021/12/18 15:39:14;;;;;;;6.75;3.92;;;;;;;5.82;100.00;102332.03;5023441;28;20036;-82
2021/12/18 15:41:42;;;;;;;4.50;3.75;;;;;;;5.82;100.00;102318.09;5046385;28;20139;-79
2021/12/18 15:44:10;;;;;;;6.55;4.15;;;;;;;5.79;100.00;102326.84;5060327;28;20036;-83
2021/12/18 15:46:42;;;;;;;6.35;4.65;;;;;;;5.76;100.00;102315.53;5063652;28;20056;-77
2021/12/18 15:49:12;;;;;;;12.25;4.05;;;;;;;5.68;100.00;102299.13;5052401;28;20115;-78
2021/12/18 15:51:39;;;;;;;7.93;4.53;;;;;;;5.70;100.00;102297.34;5059230;28;20054;-81
2021/12/18 15:54:11;;;;;;;7.25;4.78;;;;;;;5.63;100.00;102300.88;5053752;28;20460;-81
2021/12/18 15:56:40;;;;;;;5.88;4.25;;;;;;;5.65;100.00;102297.38;5031717;28;20138;-78
2021/12/18 15:59:07;;;;;;;7.13;4.72;;;;;;;5.70;100.00;102292.09;5062566;28;20070;-80
2021/12/18 16:01:35;;;;;;;6.82;4.75;;;;;;;5.70;100.00;102297.34;5047159;28;20139;-79
2021/12/18 16:04:03;;;;;;;8.30;5.07;;;;;;;5.72;100.00;102300.78;5057020;28;20139;-79
2021/12/18 16:06:32;;;;;;;7.35;5.15;;;;;;;5.73;100.00;102302.53;5049994;28;20524;-81
2021/12/18 16:09:00;;;;;;;7.40;5.07;;;;;;;5.74;100.00;102299.03;5080948;28;20044;-79
2021/12/18 16:11:31;;;;;;;5.95;4.20;;;;;;;5.81;100.00;102306.78;5024050;28;20135;-85
2021/12/18 16:13:58;;;;;;;6.32;4.30;;;;;;;5.79;100.00;102305.94;5045284;28;20089;-82
2021/12/18 16:16:26;;;;;;;6.22;4.75;;;;;;;5.81;100.00;102296.34;5046902;28;20717;-80
2021/12/18 16:18:54;;;;;;;6.40;4.75;;;;;;;5.83;100.00;102297.16;5063598;28;20362;-82
2021/12/18 16:21:23;;;;;;;8.75;4.15;;;;;;;5.86;100.00;102298.88;5083085;28;20093;-79
2021/12/18 16:23:51;;;;;;;7.45;5.40;;;;;;;5.86;100.00;102295.41;5042365;28;20055;-78
2021/12/18 16:26:18;;;;;;;7.22;5.65;;;;;;;5.81;100.00;102296.34;5061713;28;20387;-80
2021/12/18 16:28:47;;;;;;;8.02;5.55;;;;;;;5.89;100.00;102303.19;5048177;28;20386;-80
2021/12/18 16:31:15;;;;;;;9.35;6.93;;;;;;;5.86;100.00;102304.13;5065386;28;20048;-78
2021/12/18 16:33:42;;;;;;;15.13;7.40;;;;;;;5.86;100.00;102303.25;5033647;28;20143;-81
2021/12/18 16:36:15;;;;;;;10.30;7.47;;;;;;;5.91;100.00;102304.06;5064212;28;20138;-78
2021/12/18 16:38:44;;;;;;;12.35;8.55;;;;;;;5.87;100.00;102274.47;5033903;28;20032;-81
2021/12/18 16:41:13;;;;;;;11.25;7.97;;;;;;;5.86;100.00;102287.56;5063083;28;20069;-78
2021/12/18 16:43:41;;;;;;;12.15;8.50;;;;;;;5.86;100.00;102291.06;5037396;28;20429;-81
2021/12/18 16:46:10;;;;;;;11.40;8.68;;;;;;;5.85;100.00;102271.00;5050038;28;20139;-79
2021/12/18 16:48:38;;;;;;;12.43;9.23;;;;;;;5.84;100.00;102275.38;5047816;28;20102;-79
2021/12/18 16:51:26;;;;;;;12.68;8.93;;;;;;;5.84;100.00;102280.59;5067547;28;20036;-77
2021/12/18 16:53:53;;;;;;;12.95;8.68;;;;;;;5.85;100.00;102297.13;5059896;28;20579;-80
2021/12/18 16:56:21;;;;;;;12.00;8.25;;;;;;;5.89;100.00;102306.66;5032533;28;20052;-80
2021/12/18 16:58:53;;;;;;;13.32;8.65;;;;;;;5.91;100.00;102299.69;5082066;28;20055;-79
2021/12/18 17:01:21;;;;;;;13.63;8.85;;;;;;;5.83;100.00;102294.56;5049326;28;20045;-80
2021/12/18 17:03:49;;;;;;;13.57;8.65;;;;;;;5.80;100.00;102291.09;5058951;28;20121;-78
2021/12/18 17:06:17;;;;;;;12.60;8.55;;;;;;;5.78;100.00;102285.91;5049339;28;20645;-81
2021/12/18 17:08:44;;;;;;;14.93;9.27;;;;;;;5.80;100.00;102276.28;5079946;28;20643;-78
2021/12/18 17:11:12;;;;;;;13.02;9.23;;;;;;;5.79;100.00;102285.03;5059738;28;20041;-78
2021/12/18 17:13:41;;;;;;;14.88;8.27;;;;;;;5.82;100.00;102271.06;5063244;28;20042;-81
2021/12/18 17:16:10;;;;;;;12.60;7.78;;;;;;;5.87;100.00;102279.72;5029712;28;20075;-80
2021/12/18 17:18:39;;;;;;;9.75;7.07;;;;;;;5.86;100.00;102267.53;5067474;28;20740;-79
2021/12/18 17:21:08;;;;;;;11.27;7.28;;;;;;;5.90;100.00;102269.22;5066269;28;20479;-81
2021/12/18 17:23:35;;;;;;;9.10;6.55;;;;;;;5.88;100.00;102263.13;5043884;28;20052;-78
2021/12/18 17:26:03;;;;;;;12.95;6.95;;;;;;;5.88;100.00;102262.28;5065656;28;20494;-79
2021/12/18 17:28:31;;;;;;;10.52;7.32;;;;;;;5.87;100.00;102260.53;5080967;28;20122;-81
2021/12/18 17:31:00;;;;;;;11.90;7.32;;;;;;;5.86;100.00;102248.38;5044220;28;20110;-80
2021/12/18 17:33:29;;;;;;;10.50;7.18;;;;;;;5.89;100.00;102246.56;5045241;28;20131;-79
2021/12/18 17:35:56;;;;;;;10.75;7.43;;;;;;;5.91;100.00;102249.16;5043851;28;20593;-81
2021/12/18 17:38:23;;;;;;;11.60;6.90;;;;;;;5.93;100.00;102244.81;5062413;28;20135;-79
2021/12/18 17:40:51;;;;;;;11.15;7.30;;;;;;;5.90;100.00;102248.31;5044715;28;20511;-79
2021/12/18 17:43:18;;;;;;;10.18;6.68;;;;;;;5.95;100.00;102246.53;5061404;28;20073;-79
2021/12/18 17:45:47;;;;;;;11.20;6.38;;;;;;;5.98;100.00;102258.66;5045681;28;20044;-81
2021/12/18 17:48:14;;;;;;;9.52;6.63;;;;;;;5.97;100.00;102249.97;5047366;28;20139;-80
2021/12/18 17:50:42;;;;;;;10.27;6.60;;;;;;;6.03;100.00;102241.16;5060447;28;20054;-79
2021/12/18 17:53:11;;;;;;;9.38;6.65;;;;;;;5.96;100.00;102232.56;5042676;28;20502;-82
2021/12/18 17:55:38;;;;;;;9.95;6.97;;;;;;;5.99;100.00;102226.41;5063677;28;20047;-83
2021/12/18 17:58:06;;;;;;;10.43;6.05;;;;;;;6.01;100.00;102219.44;5043213;28;20043;-81
2021/12/18 18:00:33;;;;;;;12.38;6.70;;;;;;;5.96;100.00;102214.25;5058310;28;20610;-80
2021/12/18 18:03:00;;;;;;;11.52;7.18;;;;;;;5.92;100.00;102214.34;5067646;28;20154;-81
2021/12/18 18:05:28;;;;;;;11.10;6.63;;;;;;;5.94;100.00;102218.63;5044632;28;20388;-80
2021/12/18 18:07:56;;;;;;;13.77;6.80;;;;;;;5.97;100.00;102209.91;5045386;28;20036;-80
2021/12/18 18:10:42;;;;;;;16.67;7.95;;;;;;;6.08;100.00;102213.22;5036537;28;20618;-80
2021/12/18 18:13:11;;;;;;;13.93;7.68;;;;;;;6.03;100.00;102202.84;5060083;28;20206;-80
2021/12/18 18:15:39;;;;;;;14.50;7.32;;;;;;;6.08;100.00;102200.16;5064685;28;20536;-81
2021/12/18 18:18:07;;;;;;;15.55;7.10;;;;;;;6.00;100.00;102187.19;5066099;28;20040;-82
2021/12/18 18:20:37;;;;;;;12.40;7.07;;;;;;;6.06;100.00;102200.16;5049425;28;20419;-81
2021/12/18 18:23:07;;;;;;;13.32;7.65;;;;;;;6.03;100.00;102181.94;5064545;28;20106;-83
2021/12/18 18:25:59;;;;;;;11.73;7.20;;;;;;;6.04;100.00;102188.03;5076769;28;20063;-80
2021/12/18 18:28:32;;;;;;;12.23;7.47;;;;;;;6.04;100.00;102177.56;5063456;28;20131;-80
2021/12/18 18:31:06;;;;;;;12.02;8.30;;;;;;;6.03;100.00;102176.69;5046048;28;20064;-81
2021/12/18 18:33:36;;;;;;;18.55;8.82;;;;;;;6.12;100.00;102167.81;5075177;28;20062;-80
2021/12/18 18:36:07;;;;;;;13.73;7.60;;;;;;;6.18;100.00;102165.13;5080320;28;20043;-80
2021/12/18 18:38:38;;;;;;;16.23;8.35;;;;;;;6.17;100.00;102167.75;5057545;28;20189;-81
2021/12/18 18:41:08;;;;;;;15.93;7.32;;;;;;;6.14;100.00;102157.38;5078305;28;20040;-78
2021/12/18 18:43:48;;;;;;;20.15;8.23;;;;;;;6.12;100.00;102152.13;5044126;28;21205;-82
2021/12/18 18:46:24;;;;;;;14.77;7.75;;;;;;;6.17;100.00;102150.34;5060834;28;20439;-80
2021/12/18 18:48:59;;;;;;;15.57;8.05;;;;;;;6.23;100.00;102152.84;5043330;28;20080;-79
2021/12/18 18:51:30;;;;;;;15.90;8.27;;;;;;;6.25;100.00;102153.66;5031879;28;20505;-79
2021/12/18 18:53:59;;;;;;;17.58;8.88;;;;;;;6.24;100.00;102156.31;5059264;28;20056;-80
2021/12/18 18:56:28;;;;;;;17.35;8.18;;;;;;;6.30;100.00;102145.75;5041371;28;20049;-79
2021/12/18 18:58:58;;;;;;;15.57;8.05;;;;;;;6.25;100.00;102134.50;5053115;28;20071;-79
2021/12/18 19:01:34;;;;;;;14.55;8.02;;;;;;;6.29;100.00;102144.03;5039749;28;20058;-79
2021/12/18 19:04:05;;;;;;;14.60;8.43;;;;;;;6.34;100.00;102132.59;5060384;28;20041;-84
2021/12/18 19:06:33;;;;;;;16.30;8.43;;;;;;;6.35;100.00;102138.72;5061332;28;20099;-81
2021/12/18 19:09:04;;;;;;;19.38;8.02;;;;;;;6.36;100.00;102137.81;5059853;28;20139;-83
2021/12/18 19:11:32;;;;;;;19.02;8.98;;;;;;;6.42;100.00;102129.84;5059705;28;20127;-83
2021/12/18 19:14:02;;;;;;;25.02;9.20;;;;;;;6.45;100.00;102135.03;5072308;28;20132;-84
2021/12/18 19:16:37;;;;;;;19.25;7.35;;;;;;;6.44;100.00;102125.47;5043691;28;20128;-79
2021/12/18 19:19:20;;;;;;;19.47;8.83;;;;;;;6.46;100.00;102122.81;5055370;28;20060;-81
2021/12/18 19:21:52;;;;;;;27.23;9.20;;;;;;;6.45;100.00;102126.31;5059192;28;20050;-79
2021/12/18 19:24:19;;;;;;;15.65;8.88;;;;;;;6.42;100.00;102124.63;5041663;28;20052;-80
2021/12/18 19:26:47;;;;;;;19.48;7.90;;;;;;;6.48;100.00;102115.78;5041015;28;20048;-81
2021/12/18 19:29:17;;;;;;;17.42;7.80;;;;;;;6.47;100.00;102114.94;5079642;28;20562;-84
2021/12/18 19:31:47;;;;;;;20.73;9.30;;;;;;;6.48;100.00;102111.41;5059948;28;20087;-79
2021/12/18 19:34:15;;;;;;;19.33;8.23;;;;;;;6.51;100.00;102111.38;5061436;28;20151;-82
2021/12/18 19:36:45;;;;;;;18.92;8.65;;;;;;;6.48;100.00;102107.94;5048629;28;20131;-80
2021/12/18 19:39:16;;;;;;;21.08;7.35;;;;;;;6.52;100.00;102092.16;5058417;28;20131;-80
2021/12/18 19:41:45;;;;;;;18.08;8.93;;;;;;;6.55;100.00;102099.97;5024667;28;20075;-83
2021/12/18 19:44:14;;;;;;;18.00;8.73;;;;;;;6.58;100.00;102097.28;5055599;28;20050;-81
2021/12/18 19:46:43;;;;;;;20.25;8.07;;;;;;;6.60;100.00;102087.66;5041320;28;20180;-79
2021/12/18 19:49:10;;;;;;;24.02;7.43;;;;;;;6.57;100.00;102085.09;5050716;28;20045;-84
2021/12/18 19:51:40;;;;;;;27.20;8.75;;;;;;;6.58;100.00;102076.34;5047159;28;20078;-80
2021/12/18 19:54:09;;;;;;;21.65;8.45;;;;;;;6.56;100.00;102065.03;5075450;28;20074;-82
2021/12/18 19:56:38;;;;;;;16.80;6.78;;;;;;;6.55;100.00;102070.31;5077199;28;20068;-80
2021/12/18 19:59:06;;;;;;;21.55;7.47;;;;;;;6.62;100.00;102061.47;5057199;28;20151;-82
2021/12/18 20:01:35;;;;;;;23.00;7.93;;;;;;;6.54;100.00;102061.59;5076828;28;20075;-80
2021/12/18 20:06:51;;;;;;;17.95;7.22;;;;;;;6.66;100.00;102064.88;5068827;28;20082;-80
2021/12/18 20:09:21;;;;;;;21.67;6.85;;;;;;;6.64;100.00;102083.22;5059116;28;20483;-81
2021/12/18 20:11:48;;;;;;;16.83;7.30;;;;;;;6.65;100.00;102071.00;5052170;28;20594;-79
2021/12/18 20:14:17;;;;;;;19.67;8.02;;;;;;;6.65;100.00;102060.53;5064486;28;20123;-82